Latest Observation

30 Stations

15 Minute Data | America/Los_Angeles
as of 8/31/26 10:13 AM PDT
Station Date Time Temp 5ft (°F) Temp 30ft (°F) Inversion (°F) RH (%) Dew Pt (°F) Wind Spd (mph) Wind Gust (mph) Solar Rad (W/m2) Daily Min Temp (°F) Daily Max Temp (°F) Daily Rain (In) Daily ETo (in)
Shandon ETo (SLO-1) 8/31/26 1000 54.6   11.4 54.1   11.4 -0.5 89   32 51.4   0.9 5.2   0.7 10.1   2.4 298   273 43.8   4.4 55.6   11.1 0.00 0.003   0.005
Creston Rd (SLO-2) 8/31/26 1000 58.5   4.8 57.3   4.6 -1.2 75   13 50.6   0.5 3.2   0.8 7.4   0.0 526   3 43.1   2.3 60.5   3.4 0.00 0.003   0.004
NE Paso Robles (SLO-3) 8/31/26 1000 55.5   7.4 54.3   7.4 -1.2 88   22 52.1   0.9 0.0   1.9 0.0   7.8 198   359 46.3   0.5 56.0   7.8 0.00 0.002   0.005
Cross Canyon Rd (SLO-4) 8/31/26 1000 55.7   5.7 54.7   5.4 -1.0 91   23 53.1   2.2 4.4   0.9 7.8   2.0 212   284 47.4   0.3 56.3   6.5 0.00 0.003   0.003
Willow Creek (SLO-5) 8/31/26 1000 58.2   7.4 57.8   7.7 -0.4 76   19 50.8   0.7 3.6   0.9 6.8   0.7 648   52 43.3   0.2 59.9   6.8 0.00 0.003   0.004
Shell Creek Rd (SLO-6) 8/31/26 1000 57.0   17.5 56.3   17.5 -0.7 79   40 50.7   2.3 5.0   1.5 9.5   3.0 468   130 37.0   6.9 58.4   17.1 0.00 0.004   0.005
South Shandon (SLO-7) 8/31/26 1000 56.3   12.4 55.3   12.1 -1.0 83   32 51.3   1.4 3.8   1.1 8.1   1.0 446   138 41.0   4.3 58.8   10.4 0.00 0.003   0.005
South Creston (SLO-8) 8/31/26 1000 60.3   8.4 59.5   7.9 -0.9 72   26 51.1   4.1 2.5   2.4 6.4   1.7 588   6 38.6   6.5 61.8   7.6 0.00 0.003   0.004
Pozo Rd (SLO-9) 8/31/26 1000 61.4   5.2 60.2   5.0 -1.2 63   14 48.9   2.0 3.0   2.2 9.8   1.7 557   84 31.3   6.2 62.2   5.1 0.00 0.006   0.000
Experimental Station (SLO-10) 8/31/26 1000 54.6   8.1 53.8   7.4 -0.7 86   21 50.6   0.1 1.7   2.7 6.8   1.7 153   410 48.4   0.7 54.9   8.8 0.00 0.003   0.003
Vineyard Drive (SLO-11) 8/31/26 1000 60.6   9.3 60.5   8.9 -0.2 72   25 51.6   2.9 1.3   1.3 5.8   0.3 591   8 40.5   0.4 61.3   11.0 0.00 0.003   0.004
Von Dollen Road (SLO-12) 8/31/26 1000 54.0   9.2 52.8   9.1 -1.2 89   23 51.0   1.0 4.0   1.1 6.4   1.0 215   304 50.2   2.6 54.6   9.4 0.00 0.003   0.004
Templeton Gap West (SLO-13) 8/31/26 1000 59.5   7.0 57.6   7.0 -1.9 75   18 51.6   0.6 2.1   0.8 5.8   0.7 476   105 46.2   4.8 61.3   6.9 0.00 0.003   0.002
Orcutt Road (SLO-14) 8/31/26 1000 59.5   0.9 58.0   1.3 -1.5 77   7 52.4   3.2 1.9   0.5 6.1   0.0 258   280 54.9   10.4 60.2   1.0 0.00 0.003   0.002
Tiffany Ranch Rd (SLO-15) 8/31/26 1000 60.5   1.6 58.8   2.6 -1.7 78   11 53.6   5.2 0.0   0.0 0.0   0.0 236   361 50.9   6.5 61.1   2.5 0.00 0.002   0.003
Chimney Rock Rd (SLO-16) 8/31/26 0830 50.4   9.3 49.9   8.8 -0.5 96   38 49.4   4.2 1.2   1.2 3.4   3.4 118   188 41.3   5.4 50.6   10.0 0.00 0.001   0.000
Nipomo Mesa (SLO-17) 8/31/26 1000 60.2   1.4 58.5   2.0 -1.7 79   15 53.8   3.4 1.0   0.4 2.7   1.3 217   76 48.1   3.4 61.4   1.9 0.00 0.002   0.002
Morro Creek (SLO-18) 8/31/26 1000 58.5   6.0 57.8   5.3 -0.7 80   0 52.5   5.9 0.0   2.3 0.0   7.4 146   409 56.0   12.3 58.8   6.3 0.00 0.002   0.002
Paso Robles Airport ETo 8/31/26 1000 53.6   6.3 53.3   5.9 -0.4 95   22 52.3   0.9 1.2   4.0 6.8   2.7 149   323 48.0   2.3 54.2   6.6 0.00 0.002   0.004
West Shandon (SLO-20) 8/31/26 1000 56.7   11.3 55.8   11.2 -1.0 84   30 52.0   1.1 4.8   0.2 10.1   2.0 289   276 45.3   1.6 57.8   11.1 0.00 0.003   0.004
West San Miguel (SLO-21) 8/31/26 1000 54.8   8.0 - - 88   25 51.2   1.4 3.4   2.1 7.1   2.2 161   392 46.7   0.9 55.3   8.2 0.00 0.003   0.002
Adelaida Road (SLO-22) 8/31/26 1000 53.7   14.6 52.8   11.7 -0.9 86   42 49.7   4.1 3.8   2.6 7.1   2.8 476   123 41.9   3.6 54.7   14.0 0.00 0.003   0.005
East Whitley Gardens (SLO-23) 8/31/26 1000 55.0   9.7 54.3   9.5 -0.7 82   28 49.6   1.8 3.5   0.6 7.7   0.0 241   376 44.3   2.8 55.3   10.1 0.00 0.002   0.005
Estrella Road (SLO-24) 8/31/26 1000 54.9   6.3 - - 86   24 50.9   2.8 3.2   0.3 8.2   0.6 189   351 48.0   2.1 55.1   6.4 0.00 0.002   0.005
Camatta Creek (SLO-25) 8/31/26 1000 54.3   13.4 - - 84   35 49.7   1.6 2.5   0.4 8.2   2.2 212   364 41.7   4.2 54.7   13.7 0.00 0.003   0.004
East-Shandon (SLO-26) 8/31/26 1000 55.0   12.2 - - 82   34 49.6   2.7 2.0   1.2 7.1   0.0 274   327 41.3   4.2 55.4   12.7 0.00 0.003   0.005
Templeton East (SLO-27) 8/31/26 1000 59.8   4.3 - - 69   12 49.5   1.2 2.2   0.3 7.1   1.1 575   10 44.6   2.2 61.0   4.1 0.00 0.003   0.003
Ground Squirrel Hollow (SLO-28) 8/31/26 1000 55.9   8.9 - - 78   23 49.2   0.8 3.9   1.5 7.1   1.1 345   246 48.4   0.8 56.4   9.2 0.00 0.003   0.007
East Paso Robles (SLO-29) 8/31/26 1000 54.3   6.4 - - 85   20 49.9   1.3 5.3   0.4 11.0   2.8 209   328 48.4   1.1 54.5   6.7 0.00 0.003   0.004
Max     61.4 60.5 -0.2 95 53.8 5.3 11.0 648 56.0 62.2 0.00 0.006
Avg     56.9 56.4 -1.0 81 51.1 2.8 6.7 334 - - - -
Min     53.6 52.8 -1.9 63 48.9 0.0 0.0 146 31.3 54.2 0.00 0.002